createdAt,value
2022-12-17T00:02:10.862Z,15.52
2022-12-17T00:04:52.797Z,14.45
2022-12-17T00:07:35.667Z,14.30
2022-12-17T00:10:29.527Z,15.95
2022-12-17T00:13:11.630Z,15.77
2022-12-17T00:15:53.649Z,16.67
2022-12-17T00:18:47.001Z,15.10
2022-12-17T00:21:28.931Z,15.20
2022-12-17T00:24:10.859Z,15.10
2022-12-17T00:26:52.784Z,14.60
2022-12-17T00:29:34.788Z,16.23
2022-12-17T00:32:16.886Z,15.52
2022-12-17T00:35:01.352Z,17.58
2022-12-17T00:37:43.369Z,16.38
2022-12-17T00:40:25.858Z,16.15
2022-12-17T00:43:14.904Z,15.20
2022-12-17T00:45:56.818Z,15.00
2022-12-17T00:48:39.267Z,14.82
2022-12-17T00:51:23.918Z,16.65
2022-12-17T00:54:06.090Z,15.23
2022-12-17T00:56:48.054Z,16.33
2022-12-17T00:59:30.009Z,16.10
2022-12-17T01:02:12.097Z,15.80
2022-12-17T01:04:54.147Z,16.05
2022-12-17T01:07:38.686Z,17.05
2022-12-17T01:10:21.560Z,16.98
2022-12-17T01:13:03.562Z,17.20
2022-12-17T01:15:45.503Z,16.05
2022-12-17T01:18:32.878Z,16.98
2022-12-17T01:21:14.840Z,17.88
2022-12-17T01:23:59.345Z,17.38
2022-12-17T01:26:41.297Z,16.92
2022-12-17T01:29:23.498Z,18.27
2022-12-17T01:32:05.510Z,16.80
2022-12-17T01:34:47.476Z,16.38
2022-12-17T01:37:29.399Z,15.95
2022-12-17T01:40:13.919Z,15.55
2022-12-17T01:42:57.150Z,15.95
2022-12-17T01:45:39.217Z,15.35
2022-12-17T01:48:23.287Z,14.98
2022-12-17T01:51:06.151Z,14.38
2022-12-17T01:53:49.923Z,14.05
2022-12-17T01:56:34.312Z,15.40
2022-12-17T01:59:16.259Z,14.73
2022-12-17T02:01:58.346Z,14.70
2022-12-17T02:04:40.381Z,14.20
2022-12-17T02:07:32.526Z,14.23
2022-12-17T02:10:17.938Z,14.00
2022-12-17T02:13:03.520Z,13.55
2022-12-17T02:15:47.665Z,12.80
2022-12-17T02:18:32.540Z,12.93
2022-12-17T02:21:14.446Z,13.93
2022-12-17T02:24:00.597Z,13.48
2022-12-17T02:26:51.230Z,13.88
2022-12-17T02:29:33.232Z,13.63
2022-12-17T02:32:15.151Z,13.50
2022-12-17T02:35:00.710Z,13.82
2022-12-17T02:37:42.656Z,13.70
2022-12-17T02:40:25.944Z,13.93
2022-12-17T02:43:10.456Z,12.95
2022-12-17T02:45:52.493Z,12.95
2022-12-17T02:48:46.219Z,13.88
2022-12-17T02:51:28.175Z,14.00
2022-12-17T02:54:10.094Z,14.27
2022-12-17T02:56:52.396Z,14.95
2022-12-17T02:59:36.988Z,15.85
2022-12-17T03:02:19.405Z,14.98
2022-12-17T03:05:21.184Z,14.90
2022-12-17T03:08:03.372Z,14.82
2022-12-17T03:10:45.438Z,15.32
2022-12-17T03:13:37.316Z,15.05
2022-12-17T03:16:26.349Z,15.02
2022-12-17T03:19:08.320Z,15.10
2022-12-17T03:21:50.294Z,15.15
2022-12-17T03:24:32.214Z,15.35
2022-12-17T03:27:14.138Z,14.82
2022-12-17T03:29:56.103Z,14.77
2022-12-17T03:32:40.628Z,14.30
2022-12-17T03:35:22.904Z,14.20
2022-12-17T03:38:13.404Z,14.73
2022-12-17T03:40:55.344Z,15.10
2022-12-17T03:43:37.629Z,14.02
2022-12-17T03:46:19.973Z,14.45
2022-12-17T03:49:04.510Z,14.93
2022-12-17T03:51:46.431Z,14.65
2022-12-17T03:54:28.358Z,14.52
2022-12-17T03:57:15.791Z,14.48
2022-12-17T03:59:58.117Z,14.45
2022-12-17T04:02:40.140Z,14.00
2022-12-17T04:05:24.857Z,14.45
2022-12-17T04:08:06.783Z,14.27
2022-12-17T04:10:48.495Z,14.45
2022-12-17T04:13:30.427Z,14.23
2022-12-17T04:16:12.407Z,14.25
2022-12-17T04:18:54.401Z,14.48
2022-12-17T04:21:38.929Z,13.55
2022-12-17T04:24:21.415Z,14.60
2022-12-17T04:27:03.352Z,14.00
2022-12-17T04:29:45.267Z,14.23
2022-12-17T04:32:30.067Z,14.80
2022-12-17T04:35:15.620Z,15.00
2022-12-17T04:38:00.102Z,14.43
2022-12-17T04:40:42.040Z,14.60
2022-12-17T04:43:25.508Z,15.23
2022-12-17T04:46:07.548Z,14.75
2022-12-17T04:48:49.524Z,14.48
2022-12-17T04:51:31.446Z,14.32
2022-12-17T04:54:16.164Z,14.48
2022-12-17T04:56:58.074Z,14.48
2022-12-17T04:59:39.991Z,14.20
2022-12-17T05:02:22.021Z,14.27
2022-12-17T05:05:03.958Z,14.00
2022-12-17T05:07:45.988Z,13.60
2022-12-17T05:10:30.593Z,14.30
2022-12-17T05:13:13.017Z,14.10
2022-12-17T05:15:55.129Z,14.10
2022-12-17T05:18:37.083Z,14.57
2022-12-17T05:21:19.037Z,14.20
2022-12-17T05:24:00.939Z,14.25
2022-12-17T05:26:45.475Z,14.40
2022-12-17T05:29:27.584Z,14.68
2022-12-17T05:32:09.506Z,14.18
2022-12-17T05:34:51.435Z,14.13
2022-12-17T05:37:34.196Z,14.40
2022-12-17T05:40:16.125Z,13.40
2022-12-17T05:43:09.025Z,13.40
2022-12-17T05:45:50.955Z,13.77
2022-12-17T05:48:32.884Z,13.93
2022-12-17T05:51:14.817Z,13.50
2022-12-17T05:53:56.718Z,14.02
2022-12-17T05:56:38.684Z,13.80
2022-12-17T05:59:23.196Z,13.93
2022-12-17T06:02:05.134Z,14.50
2022-12-17T06:04:47.067Z,13.80
2022-12-17T06:07:29.020Z,13.90
2022-12-17T06:10:10.924Z,13.80
2022-12-17T06:13:01.644Z,13.70
2022-12-17T06:15:46.163Z,13.23
2022-12-17T06:18:28.134Z,13.75
2022-12-17T06:21:10.049Z,13.93
2022-12-17T06:23:51.962Z,13.65
2022-12-17T06:26:34.218Z,13.80
2022-12-17T06:29:16.131Z,13.95
2022-12-17T06:32:00.865Z,14.30
2022-12-17T06:34:42.887Z,14.35
2022-12-17T06:37:24.811Z,13.80
2022-12-17T06:40:06.760Z,13.90
2022-12-17T06:42:48.704Z,13.07
2022-12-17T06:45:30.667Z,13.93
2022-12-17T06:48:19.870Z,13.30
2022-12-17T06:51:01.857Z,13.95
2022-12-17T06:53:43.833Z,14.32
2022-12-17T06:56:25.743Z,14.07
2022-12-17T06:59:07.682Z,13.93
2022-12-17T07:01:49.725Z,13.63
2022-12-17T07:04:34.337Z,14.20
2022-12-17T07:07:16.264Z,13.13
2022-12-17T07:09:58.187Z,14.00
2022-12-17T07:12:40.142Z,13.23
2022-12-17T07:15:23.088Z,13.23
2022-12-17T07:18:14.727Z,14.18
2022-12-17T07:20:59.218Z,13.77
2022-12-17T07:23:41.186Z,14.40
2022-12-17T07:26:23.119Z,14.30
2022-12-17T07:29:05.106Z,13.82
2022-12-17T07:31:47.079Z,13.77
2022-12-17T07:34:29.122Z,13.90
2022-12-17T07:37:17.432Z,13.57
2022-12-17T07:40:02.342Z,13.57
2022-12-17T07:42:44.304Z,13.60
2022-12-17T07:45:26.336Z,14.02
2022-12-17T07:48:08.573Z,14.57
2022-12-17T07:50:50.614Z,14.50
2022-12-17T07:53:35.339Z,14.30
2022-12-17T07:56:17.413Z,13.88
2022-12-17T07:58:59.392Z,13.55
2022-12-17T08:01:41.449Z,12.95
2022-12-17T08:04:23.480Z,14.70
2022-12-17T08:07:11.081Z,14.27
2022-12-17T08:09:56.768Z,14.52
2022-12-17T08:12:38.756Z,14.07
2022-12-17T08:15:21.791Z,14.25
2022-12-17T08:18:03.731Z,13.65
2022-12-17T08:20:45.720Z,14.25
2022-12-17T08:23:27.656Z,13.75
2022-12-17T08:26:12.175Z,13.40
2022-12-17T08:28:54.126Z,14.07
2022-12-17T08:31:38.556Z,14.73
2022-12-17T08:34:20.657Z,13.93
2022-12-17T08:37:08.354Z,14.75
2022-12-17T08:39:50.315Z,14.65
2022-12-17T08:42:34.822Z,13.40
2022-12-17T08:45:16.927Z,14.48
2022-12-17T08:48:03.580Z,14.68
2022-12-17T08:50:46.098Z,14.18
2022-12-17T08:53:31.979Z,14.40
2022-12-17T08:56:16.752Z,14.52
2022-12-17T08:59:01.298Z,15.00
2022-12-17T09:01:43.347Z,14.77
2022-12-17T09:04:25.341Z,13.95
2022-12-17T09:07:07.277Z,14.57
2022-12-17T09:09:49.190Z,14.80
2022-12-17T09:12:31.211Z,14.82
2022-12-17T09:15:15.764Z,13.50
2022-12-17T09:17:57.710Z,14.65
2022-12-17T09:20:39.659Z,13.95
2022-12-17T09:23:21.603Z,14.32
2022-12-17T09:26:07.956Z,14.68
2022-12-17T09:28:49.895Z,13.65
2022-12-17T09:31:37.483Z,14.05
2022-12-17T09:34:19.785Z,13.90
2022-12-17T09:37:01.924Z,14.63
2022-12-17T09:39:43.849Z,15.48
2022-12-17T09:42:29.216Z,14.75
2022-12-17T09:45:14.525Z,13.57
2022-12-17T09:48:04.363Z,14.18
2022-12-17T09:50:46.351Z,15.27
2022-12-17T09:53:35.554Z,16.88
2022-12-17T09:56:17.744Z,15.77
2022-12-17T09:58:59.718Z,15.27
2022-12-17T10:01:43.657Z,15.70
2022-12-17T10:04:30.914Z,15.57
2022-12-17T10:07:12.861Z,16.10
2022-12-17T10:09:56.230Z,15.63
2022-12-17T10:12:39.305Z,15.80
2022-12-17T10:15:22.945Z,15.73
2022-12-17T10:18:04.909Z,17.45
2022-12-17T10:20:52.865Z,16.85
2022-12-17T10:23:41.346Z,15.98
2022-12-17T10:26:23.299Z,16.80
2022-12-17T10:29:05.286Z,16.75
2022-12-17T10:31:47.450Z,16.17
2022-12-17T10:34:30.253Z,16.83
2022-12-17T10:37:17.437Z,16.88
2022-12-17T10:39:59.384Z,16.40
2022-12-17T10:42:42.523Z,16.85
2022-12-17T10:45:36.100Z,18.73
2022-12-17T10:48:18.084Z,13.85
2022-12-17T10:51:00.003Z,13.23
2022-12-17T10:53:44.535Z,13.85
2022-12-17T10:56:34.893Z,13.90
2022-12-17T10:59:16.843Z,14.68
2022-12-17T11:01:58.880Z,14.23
2022-12-17T11:04:41.948Z,15.10
2022-12-17T11:07:24.199Z,14.88
2022-12-17T11:10:10.121Z,14.65
2022-12-17T11:12:56.571Z,14.77
2022-12-17T11:15:41.147Z,13.80
2022-12-17T11:18:35.933Z,14.10
2022-12-17T11:21:19.866Z,14.73
2022-12-17T11:24:01.898Z,14.43
2022-12-17T11:26:46.764Z,15.32
2022-12-17T11:29:37.543Z,15.95
2022-12-17T11:32:38.104Z,15.32
2022-12-17T11:35:22.639Z,15.65
2022-12-17T11:38:08.877Z,15.07
2022-12-17T11:40:52.438Z,14.60
2022-12-17T11:43:38.457Z,16.15
2022-12-17T11:46:31.655Z,16.40
2022-12-17T11:49:17.193Z,17.30
2022-12-17T11:52:01.664Z,16.45
2022-12-17T11:54:44.778Z,18.63
2022-12-17T11:57:38.108Z,19.77
2022-12-17T12:00:28.675Z,17.13
2022-12-17T12:03:15.383Z,16.52
2022-12-17T12:08:42.586Z,18.42
2022-12-17T12:11:31.740Z,19.05
2022-12-17T12:14:17.117Z,18.63
2022-12-17T12:17:05.329Z,19.83
2022-12-17T12:19:50.180Z,18.88
2022-12-17T12:22:33.168Z,18.55
2022-12-17T12:25:23.814Z,18.90
2022-12-17T12:28:10.511Z,17.95
2022-12-17T12:30:54.456Z,19.48
2022-12-17T12:33:43.381Z,18.83
2022-12-17T12:36:26.088Z,20.65
2022-12-17T12:39:09.014Z,19.90
2022-12-17T12:41:56.260Z,20.95
2022-12-17T12:44:41.026Z,21.48
2022-12-17T12:47:25.171Z,16.98
2022-12-17T12:50:11.574Z,17.50
2022-12-17T12:52:53.540Z,17.08
2022-12-17T12:55:35.540Z,17.45
2022-12-17T12:58:18.542Z,18.45
2022-12-17T13:01:07.512Z,20.88
2022-12-17T13:03:50.674Z,21.25
2022-12-17T13:06:45.214Z,19.67
2022-12-17T13:09:39.655Z,20.40
2022-12-17T13:12:40.265Z,19.83
2022-12-17T13:15:26.036Z,20.23
2022-12-17T13:18:00.316Z,21.63
2022-12-17T13:20:31.546Z,21.30
2022-12-17T13:23:17.727Z,20.08
2022-12-17T13:25:47.480Z,19.05
2022-12-17T13:28:30.808Z,19.75
2022-12-17T13:31:04.189Z,23.35
2022-12-17T13:33:35.993Z,20.02
2022-12-17T13:36:09.248Z,19.20
2022-12-17T13:38:45.338Z,21.98
2022-12-17T13:41:16.262Z,24.27
2022-12-17T13:46:21.354Z,24.05
2022-12-17T13:48:58.131Z,23.65
2022-12-17T13:51:28.493Z,23.45
2022-12-17T13:54:01.228Z,22.27
2022-12-17T13:56:31.494Z,22.42
2022-12-17T13:59:08.463Z,22.75
2022-12-17T14:01:46.924Z,21.23
2022-12-17T14:04:23.230Z,22.23
2022-12-17T14:06:52.747Z,23.92
2022-12-17T14:09:25.691Z,23.23
2022-12-17T14:12:07.632Z,22.15
2022-12-17T14:14:38.311Z,23.17
2022-12-17T14:17:07.838Z,23.27
2022-12-17T14:19:37.337Z,20.98
2022-12-17T14:22:06.842Z,19.48
2022-12-17T14:24:38.889Z,19.95
2022-12-17T14:27:08.340Z,22.38
2022-12-17T14:29:47.559Z,22.17
2022-12-17T14:32:25.325Z,22.05
2022-12-17T14:35:00.403Z,22.77
2022-12-17T14:37:30.395Z,23.05
2022-12-17T14:40:04.691Z,23.23
2022-12-17T14:42:34.183Z,24.58
2022-12-17T14:45:05.492Z,24.27
2022-12-17T14:47:35.621Z,24.38
2022-12-17T14:50:07.928Z,22.20
2022-12-17T14:52:43.082Z,21.65
2022-12-17T14:55:33.012Z,22.58
2022-12-17T14:58:21.084Z,24.98
2022-12-17T15:00:52.442Z,30.20
2022-12-17T15:03:24.096Z,30.10
2022-12-17T15:05:55.592Z,27.00
2022-12-17T15:08:25.124Z,26.85
2022-12-17T15:10:57.177Z,26.55
2022-12-17T15:13:26.666Z,26.55
2022-12-17T15:15:56.110Z,26.63
2022-12-17T15:20:56.224Z,24.02
2022-12-17T15:23:25.947Z,24.92
2022-12-17T15:25:57.971Z,25.05
2022-12-17T15:28:27.442Z,27.92
2022-12-17T15:30:56.965Z,27.98
2022-12-17T15:33:26.460Z,27.42
2022-12-17T15:35:55.916Z,25.73
2022-12-17T15:38:25.380Z,25.05
2022-12-17T15:40:54.884Z,24.13
2022-12-17T15:43:24.403Z,24.98
2022-12-17T15:45:54.188Z,24.33
2022-12-17T15:48:24.561Z,23.77
2022-12-17T15:50:54.016Z,23.77
2022-12-17T15:53:23.492Z,24.77
2022-12-17T15:55:52.946Z,25.67
2022-12-17T15:58:22.443Z,26.95
2022-12-17T16:00:54.507Z,26.92
2022-12-17T16:03:24.702Z,25.95
2022-12-17T16:05:54.195Z,26.85
2022-12-17T16:08:23.670Z,26.15
2022-12-17T16:10:53.135Z,28.52
2022-12-17T16:13:22.591Z,25.95
2022-12-17T16:16:03.836Z,26.73
2022-12-17T16:18:34.037Z,24.85
2022-12-17T16:21:07.000Z,25.90
2022-12-17T16:23:36.660Z,24.80
2022-12-17T16:26:07.596Z,26.83
2022-12-17T16:31:10.824Z,24.83
2022-12-17T16:33:41.149Z,25.48
2022-12-17T16:36:11.448Z,25.77
2022-12-17T16:38:45.571Z,25.17
2022-12-17T16:41:15.400Z,25.88
2022-12-17T16:43:44.878Z,25.60
2022-12-17T16:46:30.153Z,24.13
2022-12-17T16:49:00.362Z,25.33
2022-12-17T16:51:30.382Z,27.00
2022-12-17T16:54:00.099Z,26.10
2022-12-17T16:56:32.825Z,26.75
2022-12-17T16:59:07.919Z,24.70
2022-12-17T17:01:40.344Z,27.40
2022-12-17T17:04:11.077Z,26.17
2022-12-17T17:06:41.689Z,25.48
2022-12-17T17:09:11.366Z,24.55
2022-12-17T17:11:40.813Z,24.38
2022-12-17T17:14:10.878Z,24.38
2022-12-17T17:16:42.923Z,24.08
2022-12-17T17:19:12.445Z,24.42
2022-12-17T17:21:42.203Z,24.30
2022-12-17T17:24:20.851Z,23.52
2022-12-17T17:26:51.433Z,24.38
2022-12-17T17:29:20.972Z,24.33
2022-12-17T17:34:42.568Z,25.33
2022-12-17T17:37:12.065Z,25.45
2022-12-17T17:39:41.527Z,26.33
2022-12-17T17:42:11.006Z,24.75
2022-12-17T17:44:40.604Z,26.33
2022-12-17T17:47:12.841Z,25.67
2022-12-17T17:49:42.299Z,26.10
2022-12-17T17:52:12.296Z,24.25
2022-12-17T17:54:42.175Z,25.10
2022-12-17T17:57:11.809Z,23.92
2022-12-17T17:59:42.033Z,24.02
2022-12-17T18:02:15.257Z,22.70
2022-12-17T18:04:44.823Z,23.75
2022-12-17T18:07:29.792Z,22.98
2022-12-17T18:09:59.814Z,23.13
2022-12-17T18:12:41.839Z,23.17
2022-12-17T18:15:15.269Z,24.23
2022-12-17T18:17:47.870Z,24.45
2022-12-17T18:20:17.407Z,24.35
2022-12-17T18:22:47.354Z,24.65
2022-12-17T18:25:17.792Z,25.13
2022-12-17T18:27:47.332Z,27.02
2022-12-17T18:30:17.039Z,25.95
2022-12-17T18:32:49.080Z,23.98
2022-12-17T18:35:18.666Z,26.42
2022-12-17T18:37:48.148Z,25.42
2022-12-17T18:40:17.628Z,25.70
2022-12-17T18:42:59.579Z,27.35
2022-12-17T18:45:29.072Z,39.83
2022-12-17T18:48:01.110Z,24.45
2022-12-17T18:50:30.599Z,23.90
2022-12-17T18:53:00.087Z,27.17
2022-12-17T18:55:29.551Z,35.25
2022-12-17T18:57:59.568Z,25.23
2022-12-17T19:00:29.040Z,24.37
2022-12-17T19:03:01.151Z,25.38
2022-12-17T19:05:30.694Z,23.45
2022-12-17T19:08:00.146Z,23.45
2022-12-17T19:10:29.592Z,23.60
2022-12-17T19:12:59.547Z,23.65
2022-12-17T19:15:29.080Z,24.63
2022-12-17T19:18:01.484Z,24.73
2022-12-17T19:20:30.944Z,26.25
2022-12-17T19:23:00.401Z,28.45
2022-12-17T19:25:29.879Z,26.58
2022-12-17T19:27:59.324Z,26.95
2022-12-17T19:30:28.858Z,26.35
2022-12-17T19:33:01.096Z,29.30
2022-12-17T19:35:30.620Z,26.83
2022-12-17T19:38:00.086Z,26.33
2022-12-17T19:40:29.593Z,25.15
2022-12-17T19:42:59.045Z,25.38
2022-12-17T19:45:28.596Z,25.42
2022-12-17T19:48:00.684Z,26.00
2022-12-17T19:50:30.155Z,28.60
2022-12-17T19:52:59.599Z,27.27
2022-12-17T19:55:29.068Z,27.75
2022-12-17T19:57:58.551Z,27.52
2022-12-17T20:00:28.035Z,26.83
2022-12-17T20:02:58.017Z,26.23
2022-12-17T20:05:30.150Z,26.65
2022-12-17T20:07:59.602Z,25.55
2022-12-17T20:10:29.054Z,28.77
2022-12-17T20:12:58.476Z,29.92
2022-12-17T20:15:27.954Z,29.88
2022-12-17T20:17:57.416Z,28.15
2022-12-17T20:20:27.176Z,28.65
2022-12-17T20:22:59.237Z,30.00
2022-12-17T20:25:28.716Z,29.45
2022-12-17T20:27:58.527Z,28.67
2022-12-17T20:30:28.015Z,30.35
2022-12-17T20:32:57.484Z,29.65
2022-12-17T20:35:26.941Z,29.60
2022-12-17T20:37:58.976Z,30.15
2022-12-17T20:40:28.443Z,34.08
2022-12-17T20:42:57.912Z,31.88
2022-12-17T20:45:27.497Z,30.42
2022-12-17T20:47:57.008Z,32.83
2022-12-17T20:50:26.471Z,31.17
2022-12-17T20:52:55.933Z,30.42
2022-12-17T20:55:31.307Z,30.73
2022-12-17T20:58:00.932Z,32.33
2022-12-17T21:00:30.382Z,32.00
2022-12-17T21:02:59.926Z,31.92
2022-12-17T21:05:29.541Z,30.45
2022-12-17T21:07:58.988Z,31.38
2022-12-17T21:10:31.054Z,31.98
2022-12-17T21:13:18.694Z,31.98
2022-12-17T21:15:51.572Z,30.58
2022-12-17T21:18:21.011Z,30.92
2022-12-17T21:23:26.098Z,30.15
2022-12-17T21:26:02.977Z,29.67
2022-12-17T21:28:39.362Z,29.48
2022-12-17T21:31:09.219Z,29.77
2022-12-17T21:33:38.891Z,30.23
2022-12-17T21:36:09.200Z,29.90
2022-12-17T21:38:38.938Z,31.25
2022-12-17T21:41:14.710Z,31.60
2022-12-17T21:43:44.196Z,31.33
2022-12-17T21:46:13.951Z,30.52
2022-12-17T21:48:46.657Z,32.47
2022-12-17T21:51:16.622Z,32.30
2022-12-17T21:53:46.352Z,31.27
2022-12-17T21:56:19.236Z,31.35
2022-12-17T21:58:49.169Z,30.08
2022-12-17T22:01:20.034Z,31.40
2022-12-17T22:03:53.139Z,31.30
2022-12-17T22:06:26.403Z,29.45
2022-12-17T22:09:03.624Z,29.23
2022-12-17T22:11:45.225Z,31.15
2022-12-17T22:14:18.747Z,30.33
2022-12-17T22:16:50.574Z,31.70
2022-12-17T22:19:22.504Z,30.73
2022-12-17T22:21:57.757Z,31.83
2022-12-17T22:24:27.606Z,31.58
2022-12-17T22:27:02.294Z,32.03
2022-12-17T22:29:44.261Z,32.20
2022-12-17T22:32:26.481Z,30.65
2022-12-17T22:36:06.911Z,32.75
2022-12-17T22:40:37.943Z,32.42
2022-12-17T22:44:25.898Z,31.40
2022-12-17T22:44:51.577Z,31.45
2022-12-17T22:46:21.242Z,32.42
2022-12-17T22:48:50.781Z,33.08
2022-12-17T22:51:26.417Z,33.00
2022-12-17T22:54:03.830Z,34.15
2022-12-17T22:57:15.146Z,33.30
2022-12-17T22:59:25.716Z,32.13
2022-12-17T23:01:55.211Z,32.28
2022-12-17T23:04:24.734Z,31.42
2022-12-17T23:06:54.245Z,32.08
2022-12-17T23:09:24.111Z,32.63
2022-12-17T23:11:53.569Z,32.45
2022-12-17T23:14:25.672Z,31.45
2022-12-17T23:16:55.145Z,31.75
2022-12-17T23:19:24.612Z,31.75
2022-12-17T23:21:54.081Z,30.23
2022-12-17T23:24:23.528Z,31.33
2022-12-17T23:26:52.996Z,32.25
2022-12-17T23:29:25.041Z,31.52
2022-12-17T23:31:54.529Z,31.95
2022-12-17T23:34:24.583Z,31.95
2022-12-17T23:36:54.048Z,32.05
2022-12-17T23:39:23.569Z,30.75
2022-12-17T23:41:53.085Z,31.17
2022-12-17T23:44:25.296Z,31.30
2022-12-17T23:46:54.786Z,30.98
2022-12-17T23:49:24.268Z,31.48
2022-12-17T23:51:53.782Z,30.65
2022-12-17T23:54:23.244Z,30.80
2022-12-17T23:56:52.705Z,30.42
2022-12-17T23:59:24.760Z,29.80
